Forside
METAR-TAF:

METAR-TAF

Lufthavne :

Kunming, Kina

Breddekreds: 25-01N, længdekreds: 102-41E, højde: 1892 m

Aktuelle vejr

Denne rapport blev lavet for 1 time og 9 minutter siden, kl. 21:00 UTC
Vind 8 kt fra sydsydvest
Temperatur 7°C
Fugtighed 87%
Tryk 1022 hPa
Sigt 10 km eller mere
ingen skyer under 1500m og ingen cumulonimbus

METAR: ZPPP 162100Z 21004MPS CAVOK 07/05 Q1022 NOSIG

Tid: 06:09 (22:09 UTC)

Vejrudsigter

Denne rapport blev lavet for 9 timer og 3 minutter siden, kl. 13:06 UTC
Foreløbig gælder fra 16 på 18 UTC til 17 på 18 UTC
Vind 8 kt fra sydvest
Sigt 10 km eller mere
ingen skyer under 1500m og ingen cumulonimbus

TAF: ZPPP 161306Z 1618/1718 22004MPS CAVOK TX20/1708Z TN06/1623Z

Vejrobservationer og prognoser fra mere end 4000 lufthavne (METAR og TAF).

De gule og røde prikker repræsenterer de meteorologiske stationer.

Flyt musen over at se navnet på stationen.

Så klik over at se vejr observationer og prognoser.

At skifte det kort: Klik på de grønne knapper med et sort kors for at zoome ind; på den grønne knap med en bindestreg for at zoome ud; eller på de grønne pile for tilstødende kort.


METAR-TAF: